KRNO/RNO METAR and TAF weather

Enter ICAO airport designator
Station Type Date Time Source
KRNO METAR 2020/11/27 13:55 UTC NOAA

KRNO 271355Z 00000KT 10SM CLR M06/M09 A3040 RMK AO2 SLP316 T10561089


Station Type Date Time Source
KRNO Decoded METAR 2020/11/27 13:55 UTC NOAA

RENO/TAHOE INTERNATIONAL AIRPORT, NV, United States (KRNO) 39-29N 119-46W 1342M
Nov 27, 2020 - 08:55 AM EST / 2020.11.27 1355 UTC
Wind: Calm:0
Visibility: 10 mile(s):0
Sky conditions: clear
Temperature: 21.9 F (-5.6 C)
Dew Point: 16.0 F (-8.9 C)
Relative Humidity: 77%
Pressure (altimeter): 30.4 in. Hg (1029 hPa)
ob: KRNO 271355Z 00000KT 10SM CLR M06/M09 A3040 RMK AO2 SLP316 T10561089
cycle: 14

Station Type Date Time Source
KRNO TAF 2020/11/27 12:22 UTC NOAA

TAF KRNO 271120Z 2712/2812 VRB03KT P6SM SKC
FM271800 11008KT P6SM SKC
FM280300 VRB04KT P6SM SKC

Example: see airport list